createdAt,value
2023-01-04T00:01:47.668Z,15.80
2023-01-04T00:04:15.627Z,16.20
2023-01-04T00:06:43.422Z,15.80
2023-01-04T00:09:11.373Z,17.60
2023-01-04T00:11:39.548Z,17.40
2023-01-04T00:14:07.312Z,16.90
2023-01-04T00:16:35.323Z,17.50
2023-01-04T00:19:03.742Z,17.50
2023-01-04T00:21:31.945Z,18.10
2023-01-04T00:24:01.032Z,17.60
2023-01-04T00:26:30.527Z,17.20
2023-01-04T00:28:59.980Z,16.90
2023-01-04T00:31:28.335Z,18.40
2023-01-04T00:33:57.660Z,18.70
2023-01-04T00:36:26.093Z,18.70
2023-01-04T00:39:08.357Z,19.30
2023-01-04T00:41:58.864Z,16.70
2023-01-04T00:44:29.137Z,15.50
2023-01-04T00:46:57.495Z,16.30
2023-01-04T00:49:25.869Z,15.70
2023-01-04T00:51:54.845Z,16.40
2023-01-04T00:54:22.740Z,16.60
2023-01-04T00:56:50.894Z,18.30
2023-01-04T00:59:19.886Z,16.90
2023-01-04T01:01:48.236Z,16.80
2023-01-04T01:04:18.325Z,17.00
2023-01-04T01:06:46.705Z,18.20
2023-01-04T01:09:15.116Z,17.90
2023-01-04T01:11:43.340Z,17.20
2023-01-04T01:14:15.786Z,16.50
2023-01-04T01:16:59.219Z,16.40
2023-01-04T01:19:28.650Z,15.60
2023-01-04T01:21:58.291Z,15.90
2023-01-04T01:24:27.006Z,15.10
2023-01-04T01:26:55.842Z,17.50
2023-01-04T01:29:24.178Z,17.50
2023-01-04T01:31:52.254Z,16.90
2023-01-04T01:34:20.715Z,17.20
2023-01-04T01:36:48.824Z,17.50
2023-01-04T01:39:17.072Z,15.30
2023-01-04T01:41:45.040Z,16.90
2023-01-04T01:44:13.008Z,17.00
2023-01-04T01:46:43.554Z,17.30
2023-01-04T01:49:34.671Z,16.40
2023-01-04T01:52:04.064Z,20.90
2023-01-04T01:54:36.290Z,20.20
2023-01-04T01:57:05.688Z,21.80
2023-01-04T01:59:36.252Z,21.40
2023-01-04T02:02:04.206Z,22.50
2023-01-04T02:04:32.498Z,21.60
2023-01-04T02:07:01.395Z,22.90
2023-01-04T02:09:30.688Z,23.10
2023-01-04T02:11:58.791Z,22.00
2023-01-04T02:14:30.150Z,21.80
2023-01-04T02:17:04.328Z,22.70
2023-01-04T02:19:38.403Z,21.90
2023-01-04T02:22:25.248Z,21.80
2023-01-04T02:27:20.923Z,19.80
2023-01-04T02:29:58.528Z,21.40
2023-01-04T02:32:33.413Z,22.70
2023-01-04T02:35:16.278Z,21.70
2023-01-04T02:38:04.051Z,20.10
2023-01-04T02:40:42.052Z,20.60
2023-01-04T02:43:37.461Z,20.80
2023-01-04T02:46:08.633Z,19.70
2023-01-04T02:48:59.096Z,19.60
2023-01-04T02:51:34.258Z,16.60
2023-01-04T02:54:05.067Z,17.10
2023-01-04T02:56:52.938Z,16.40
2023-01-04T02:59:30.277Z,17.90
2023-01-04T03:05:09.799Z,15.30
2023-01-04T03:07:47.238Z,16.10
2023-01-04T03:12:50.869Z,16.10
2023-01-04T03:15:31.392Z,16.20
2023-01-04T03:18:02.405Z,19.00
2023-01-04T03:20:31.051Z,20.10
2023-01-04T03:23:21.009Z,18.50
2023-01-04T03:26:26.985Z,19.10
2023-01-04T03:29:16.861Z,16.70
2023-01-04T03:32:25.420Z,17.70
2023-01-04T03:35:12.710Z,19.00
2023-01-04T03:37:48.648Z,18.50
2023-01-04T03:40:39.157Z,18.90
2023-01-04T03:43:37.733Z,18.00
2023-01-04T03:46:24.653Z,17.00
2023-01-04T03:48:57.770Z,17.10
2023-01-04T03:51:28.262Z,17.10
2023-01-04T03:53:59.375Z,16.40
2023-01-04T03:56:28.720Z,16.70
2023-01-04T03:58:57.192Z,16.20
2023-01-04T04:01:26.440Z,17.10
2023-01-04T04:04:14.317Z,17.00
2023-01-04T04:07:02.175Z,16.40
2023-01-04T04:09:30.149Z,16.60
2023-01-04T04:11:58.172Z,15.10
2023-01-04T04:14:26.286Z,16.00
2023-01-04T04:16:54.443Z,15.20
2023-01-04T04:19:22.443Z,15.80
2023-01-04T04:21:50.211Z,16.40
2023-01-04T04:24:19.783Z,14.80
2023-01-04T04:26:47.872Z,14.50
2023-01-04T04:29:15.694Z,15.10
2023-01-04T04:31:44.020Z,15.40
2023-01-04T04:34:12.376Z,14.90
2023-01-04T04:36:40.280Z,14.70
2023-01-04T04:39:08.174Z,14.50
2023-01-04T04:41:38.913Z,15.70
2023-01-04T04:44:15.010Z,16.90
2023-01-04T04:46:43.396Z,14.60
2023-01-04T04:49:11.377Z,14.90
2023-01-04T04:51:40.030Z,14.90
2023-01-04T04:54:09.435Z,13.70
2023-01-04T04:56:37.372Z,15.30
2023-01-04T04:59:05.841Z,17.60
2023-01-04T05:01:33.748Z,14.00
2023-01-04T05:04:02.173Z,26.70
2023-01-04T05:06:30.802Z,26.40
2023-01-04T05:08:58.756Z,19.10
2023-01-04T05:11:45.507Z,25.50
2023-01-04T05:14:13.738Z,19.80
2023-01-04T05:16:41.801Z,15.30
2023-01-04T05:19:10.031Z,15.40
2023-01-04T05:21:37.856Z,14.80
2023-01-04T05:24:05.870Z,14.40
2023-01-04T05:26:33.808Z,13.50
2023-01-04T05:29:01.859Z,13.00
2023-01-04T05:31:29.882Z,14.00
2023-01-04T05:33:57.846Z,13.20
2023-01-04T05:36:26.186Z,13.50
2023-01-04T05:38:54.259Z,14.30
2023-01-04T05:41:41.086Z,14.00
2023-01-04T05:44:09.464Z,14.70
2023-01-04T05:46:37.432Z,14.60
2023-01-04T05:49:05.389Z,15.80
2023-01-04T05:51:33.249Z,15.60
2023-01-04T05:54:01.014Z,16.60
2023-01-04T05:56:29.040Z,16.60
2023-01-04T05:58:57.207Z,23.30
2023-01-04T06:01:25.269Z,25.00
2023-01-04T06:03:53.353Z,17.60
2023-01-04T06:06:21.364Z,15.10
2023-01-04T06:08:49.437Z,15.90
2023-01-04T06:11:21.332Z,14.80
2023-01-04T06:13:51.929Z,16.20
2023-01-04T06:16:19.717Z,17.80
2023-01-04T06:18:47.586Z,17.30
2023-01-04T06:21:15.841Z,14.90
2023-01-04T06:23:43.848Z,15.90
2023-01-04T06:26:11.672Z,16.30
2023-01-04T06:28:41.204Z,17.40
2023-01-04T06:31:10.626Z,15.20
2023-01-04T06:33:38.949Z,11.80
2023-01-04T06:36:07.613Z,12.20
2023-01-04T06:38:48.196Z,12.30
2023-01-04T06:41:16.075Z,11.70
2023-01-04T06:43:44.120Z,11.90
2023-01-04T06:46:12.441Z,11.70
2023-01-04T06:48:40.687Z,11.70
2023-01-04T06:51:08.656Z,10.80
2023-01-04T06:53:36.934Z,10.70
2023-01-04T06:56:05.107Z,10.70
2023-01-04T06:58:32.999Z,11.90
2023-01-04T07:01:01.004Z,11.30
2023-01-04T07:03:29.000Z,12.30
2023-01-04T07:05:56.792Z,11.30
2023-01-04T07:08:25.355Z,11.60
2023-01-04T07:10:53.130Z,10.40
2023-01-04T07:13:20.978Z,11.70
2023-01-04T07:15:48.899Z,11.20
2023-01-04T07:18:16.816Z,11.00
2023-01-04T07:20:45.361Z,11.20
2023-01-04T07:23:13.676Z,10.70
2023-01-04T07:25:41.640Z,11.10
2023-01-04T07:28:09.611Z,10.50
2023-01-04T07:30:37.579Z,10.60
2023-01-04T07:33:05.816Z,10.90
2023-01-04T07:35:33.755Z,10.70
2023-01-04T07:38:02.843Z,10.50
2023-01-04T07:40:30.636Z,11.20
2023-01-04T07:42:59.089Z,10.60
2023-01-04T07:45:27.726Z,11.10
2023-01-04T07:47:55.840Z,10.70
2023-01-04T07:50:23.794Z,11.50
2023-01-04T07:52:51.929Z,10.80
2023-01-04T07:55:19.864Z,11.00
2023-01-04T07:57:47.792Z,10.50
2023-01-04T08:00:16.268Z,11.00
2023-01-04T08:02:44.263Z,11.10
2023-01-04T08:05:12.500Z,11.50
2023-01-04T08:07:40.502Z,11.10
2023-01-04T08:10:08.353Z,11.00
2023-01-04T08:12:36.420Z,10.90
2023-01-04T08:15:04.589Z,11.70
2023-01-04T08:17:33.010Z,11.40
2023-01-04T08:20:01.761Z,11.20
2023-01-04T08:22:29.732Z,11.50
2023-01-04T08:24:57.605Z,12.40
2023-01-04T08:27:25.559Z,14.90
2023-01-04T08:29:53.628Z,14.30
2023-01-04T08:32:22.694Z,14.10
2023-01-04T08:34:50.736Z,14.10
2023-01-04T08:37:18.760Z,12.60
2023-01-04T08:39:49.198Z,13.50
2023-01-04T08:42:25.126Z,14.00
2023-01-04T08:45:01.048Z,13.30
2023-01-04T08:47:30.634Z,14.00
2023-01-04T08:49:59.452Z,14.30
2023-01-04T08:52:28.961Z,13.40
2023-01-04T08:54:56.867Z,12.80
2023-01-04T08:57:24.728Z,13.60
2023-01-04T08:59:52.694Z,12.80
2023-01-04T09:02:23.391Z,13.20
2023-01-04T09:04:52.336Z,12.40
2023-01-04T09:07:20.528Z,13.00
2023-01-04T09:09:48.467Z,12.20
2023-01-04T09:12:16.537Z,12.50
2023-01-04T09:14:44.791Z,11.90
2023-01-04T09:17:12.693Z,11.70
2023-01-04T09:19:40.638Z,12.00
2023-01-04T09:22:08.885Z,11.10
2023-01-04T09:24:36.656Z,12.70
2023-01-04T09:27:04.848Z,15.30
2023-01-04T09:29:32.720Z,13.80
2023-01-04T09:32:01.321Z,12.20
2023-01-04T09:34:29.508Z,11.30
2023-01-04T09:36:58.370Z,9.90
2023-01-04T09:39:30.329Z,16.10
2023-01-04T09:41:59.650Z,10.80
2023-01-04T09:45:12.210Z,9.90
2023-01-04T09:47:22.273Z,9.30
2023-01-04T09:49:53.123Z,9.60
2023-01-04T09:52:25.842Z,10.20
2023-01-04T09:54:58.982Z,11.70
2023-01-04T09:57:32.522Z,8.40
2023-01-04T10:00:03.636Z,10.80
2023-01-04T10:02:44.629Z,11.50
2023-01-04T10:05:18.776Z,9.80
2023-01-04T10:07:46.722Z,10.40
2023-01-04T10:10:15.851Z,12.00
2023-01-04T10:12:43.644Z,10.60
2023-01-04T10:15:16.644Z,9.60
2023-01-04T10:18:51.987Z,9.10
2023-01-04T10:23:26.970Z,8.20
2023-01-04T10:25:56.955Z,7.60
2023-01-04T10:28:27.708Z,9.10
2023-01-04T10:31:39.361Z,7.40
2023-01-04T10:34:05.388Z,6.60
2023-01-04T10:36:33.201Z,5.90
2023-01-04T10:39:05.652Z,5.70
2023-01-04T10:41:37.077Z,5.20
2023-01-04T10:44:11.095Z,5.70
2023-01-04T10:47:01.744Z,5.70
2023-01-04T10:49:38.059Z,5.20
2023-01-04T10:52:13.291Z,4.80
2023-01-04T10:54:44.820Z,5.10
2023-01-04T10:57:15.316Z,4.50
2023-01-04T10:59:43.433Z,13.10
2023-01-04T11:02:17.832Z,8.40
2023-01-04T11:04:48.767Z,6.40
2023-01-04T11:07:19.293Z,9.70
2023-01-04T11:09:47.425Z,5.40
2023-01-04T11:12:15.978Z,4.90
2023-01-04T11:14:44.271Z,9.40
2023-01-04T11:17:12.637Z,7.20
2023-01-04T11:19:41.337Z,6.50
2023-01-04T11:22:09.210Z,4.10
2023-01-04T11:24:38.960Z,3.80
2023-01-04T11:27:10.949Z,3.90
2023-01-04T11:29:38.841Z,3.90
2023-01-04T11:32:19.079Z,4.60
2023-01-04T11:34:48.939Z,5.90
2023-01-04T11:37:26.585Z,10.10
2023-01-04T11:40:11.772Z,4.90
2023-01-04T11:42:39.726Z,4.30
2023-01-04T11:45:21.209Z,3.90
2023-01-04T11:47:50.324Z,4.90
2023-01-04T11:50:47.665Z,4.50
2023-01-04T11:53:36.263Z,4.10
2023-01-04T11:56:13.652Z,4.60
2023-01-04T11:58:42.085Z,4.00
2023-01-04T12:01:23.807Z,4.10
2023-01-04T12:03:52.161Z,4.00
2023-01-04T12:06:28.359Z,4.40
2023-01-04T12:08:56.506Z,4.00
2023-01-04T12:11:28.754Z,3.30
2023-01-04T12:13:59.795Z,5.40
2023-01-04T12:16:46.871Z,3.70
2023-01-04T12:19:16.817Z,3.60
2023-01-04T12:21:47.415Z,3.70
2023-01-04T12:24:17.873Z,3.70
2023-01-04T12:26:45.954Z,10.70
2023-01-04T12:29:22.639Z,5.20
2023-01-04T12:31:52.044Z,5.10
2023-01-04T12:34:23.308Z,4.50
2023-01-04T12:36:51.140Z,6.50
2023-01-04T12:39:29.147Z,5.30
2023-01-04T12:42:04.655Z,4.60
2023-01-04T12:44:38.920Z,5.70
2023-01-04T12:47:34.890Z,3.80
2023-01-04T12:50:07.702Z,4.10
2023-01-04T12:53:01.818Z,4.00
2023-01-04T12:55:39.146Z,4.30
2023-01-04T12:58:49.629Z,4.20
2023-01-04T13:01:24.774Z,4.40
2023-01-04T13:04:00.811Z,4.10
2023-01-04T13:06:34.269Z,4.40
2023-01-04T13:09:05.584Z,4.60
2023-01-04T13:11:48.017Z,4.20
2023-01-04T13:14:38.985Z,4.20
2023-01-04T13:17:23.814Z,5.30
2023-01-04T13:19:51.938Z,4.60
2023-01-04T13:22:29.718Z,5.00
2023-01-04T13:24:58.913Z,4.80
2023-01-04T13:27:27.576Z,6.80
2023-01-04T13:29:55.900Z,6.10
2023-01-04T13:32:25.076Z,7.40
2023-01-04T13:35:00.214Z,22.00
2023-01-04T13:37:38.499Z,17.10
2023-01-04T13:40:26.593Z,10.50
2023-01-04T13:42:57.416Z,6.40
2023-01-04T13:45:44.528Z,5.80
2023-01-04T13:48:14.119Z,5.70
2023-01-04T13:50:49.770Z,5.40
2023-01-04T13:53:20.146Z,5.30
2023-01-04T13:55:55.254Z,5.40
2023-01-04T13:58:28.018Z,5.90
2023-01-04T14:01:05.925Z,5.50
2023-01-04T14:03:41.340Z,5.30
2023-01-04T14:06:09.627Z,6.30
2023-01-04T14:08:40.495Z,7.10
2023-01-04T14:11:15.457Z,8.80
2023-01-04T14:13:48.005Z,8.70
2023-01-04T14:16:16.352Z,6.90
2023-01-04T14:18:44.728Z,7.60
2023-01-04T14:21:17.279Z,4.60
2023-01-04T14:23:45.562Z,5.50
2023-01-04T14:26:29.916Z,4.80
2023-01-04T14:28:58.662Z,5.80
2023-01-04T14:31:28.541Z,7.00
2023-01-04T14:33:58.238Z,4.80
2023-01-04T14:36:28.349Z,5.00
2023-01-04T14:39:09.599Z,15.50
2023-01-04T14:42:05.355Z,7.60
2023-01-04T14:44:36.031Z,4.80
2023-01-04T14:47:06.520Z,4.30
2023-01-04T14:49:35.001Z,4.10
2023-01-04T14:52:04.296Z,3.80
2023-01-04T14:54:35.275Z,4.30
2023-01-04T14:57:03.170Z,7.00
2023-01-04T14:59:31.351Z,6.30
2023-01-04T15:02:00.017Z,5.20
2023-01-04T15:04:28.642Z,6.40
2023-01-04T15:07:00.598Z,6.70
2023-01-04T15:09:29.426Z,4.70
2023-01-04T15:11:57.776Z,5.30
2023-01-04T15:14:27.914Z,4.60
2023-01-04T15:16:55.959Z,4.60
2023-01-04T15:19:24.727Z,4.90
2023-01-04T15:21:56.705Z,4.70
2023-01-04T15:24:25.183Z,4.40
2023-01-04T15:26:53.148Z,5.40
2023-01-04T15:29:21.536Z,4.10
2023-01-04T15:31:49.763Z,6.90
2023-01-04T15:34:18.731Z,4.80
2023-01-04T15:36:50.984Z,5.10
2023-01-04T15:39:19.144Z,4.40
2023-01-04T15:42:06.567Z,5.10
2023-01-04T15:47:03.468Z,7.70
2023-01-04T15:49:32.319Z,6.10
2023-01-04T15:52:00.792Z,6.60
2023-01-04T15:54:30.192Z,8.60
2023-01-04T15:56:58.370Z,7.50
2023-01-04T15:59:26.945Z,9.00
2023-01-04T16:01:55.643Z,7.30
2023-01-04T16:04:24.537Z,8.00
2023-01-04T16:06:52.796Z,7.40
2023-01-04T16:09:21.126Z,22.70
2023-01-04T16:12:08.392Z,10.20
2023-01-04T16:17:04.328Z,4.90
2023-01-04T16:19:34.657Z,5.00
2023-01-04T16:22:02.782Z,5.30
2023-01-04T16:25:09.411Z,6.10
2023-01-04T16:27:23.264Z,6.10
2023-01-04T16:29:52.637Z,6.20
2023-01-04T16:32:21.225Z,6.00
2023-01-04T16:34:51.533Z,6.30
2023-01-04T16:37:21.665Z,6.10
2023-01-04T16:40:08.519Z,16.20
2023-01-04T16:42:38.772Z,13.10
2023-01-04T16:45:07.914Z,10.60
2023-01-04T16:47:42.010Z,8.80
2023-01-04T16:50:13.174Z,9.90
2023-01-04T16:52:44.799Z,7.50
2023-01-04T16:55:23.431Z,7.30
2023-01-04T16:57:57.568Z,6.70
2023-01-04T17:00:28.592Z,6.60
2023-01-04T17:03:03.444Z,6.90
2023-01-04T17:05:32.625Z,6.40
2023-01-04T17:08:02.336Z,7.10
2023-01-04T17:10:31.103Z,6.30
2023-01-04T17:12:59.783Z,7.90
2023-01-04T17:15:44.293Z,6.80
2023-01-04T17:18:15.450Z,7.40
2023-01-04T17:20:43.368Z,7.60
2023-01-04T17:23:12.046Z,8.30
2023-01-04T17:25:40.831Z,7.70
2023-01-04T17:28:08.991Z,8.20
2023-01-04T17:30:40.505Z,7.20
2023-01-04T17:33:10.193Z,8.20
2023-01-04T17:35:39.781Z,9.40
2023-01-04T17:38:08.456Z,7.50
2023-01-04T17:40:37.357Z,10.00
2023-01-04T17:43:07.080Z,10.50
2023-01-04T17:45:36.292Z,8.30
2023-01-04T17:48:05.340Z,7.60
2023-01-04T17:50:34.333Z,8.60
2023-01-04T17:53:04.075Z,11.00
2023-01-04T17:55:34.368Z,10.20
2023-01-04T17:58:06.145Z,10.50
2023-01-04T18:03:08.704Z,16.10
2023-01-04T18:05:51.316Z,15.70
2023-01-04T18:08:23.408Z,12.60
2023-01-04T18:11:09.013Z,12.20
2023-01-04T18:16:24.290Z,11.10
2023-01-04T18:18:56.342Z,14.30
2023-01-04T18:21:30.816Z,11.10
2023-01-04T18:27:21.113Z,10.90
2023-01-04T18:29:44.394Z,7.70
2023-01-04T18:32:13.152Z,5.90
2023-01-04T18:34:41.363Z,4.20
2023-01-04T18:37:11.148Z,3.70
2023-01-04T18:39:39.157Z,4.10
2023-01-04T18:42:08.486Z,3.50
2023-01-04T18:44:45.633Z,3.60
2023-01-04T18:47:20.620Z,3.50
2023-01-04T18:49:51.554Z,3.00
2023-01-04T18:52:21.010Z,3.40
2023-01-04T18:54:49.398Z,3.80
2023-01-04T18:57:17.980Z,3.40
2023-01-04T18:59:51.229Z,3.30
2023-01-04T19:02:20.456Z,3.30
2023-01-04T19:04:50.565Z,3.30
2023-01-04T19:07:18.887Z,3.50
2023-01-04T19:09:47.021Z,3.20
2023-01-04T19:12:17.564Z,3.10
2023-01-04T19:14:47.458Z,2.90
2023-01-04T19:17:15.847Z,2.80
2023-01-04T19:19:46.260Z,2.90
2023-01-04T19:22:15.653Z,2.80
2023-01-04T19:24:43.664Z,3.00
2023-01-04T19:27:12.935Z,2.60
2023-01-04T19:29:41.013Z,2.80
2023-01-04T19:32:10.314Z,2.50
2023-01-04T19:34:38.991Z,2.50
2023-01-04T19:37:08.448Z,2.00
2023-01-04T19:39:39.072Z,2.20
2023-01-04T19:42:07.597Z,2.10
2023-01-04T19:44:36.195Z,2.20
2023-01-04T19:47:06.452Z,1.80
2023-01-04T19:49:35.495Z,2.20
2023-01-04T19:52:03.466Z,2.00
2023-01-04T19:54:32.062Z,1.60
2023-01-04T19:57:00.228Z,1.80
2023-01-04T19:59:28.554Z,2.20
2023-01-04T20:01:56.874Z,1.90
2023-01-04T20:04:29.486Z,2.20
2023-01-04T20:06:58.352Z,1.90
2023-01-04T20:09:27.921Z,1.50
2023-01-04T20:11:56.840Z,1.90
2023-01-04T20:14:25.325Z,2.10
2023-01-04T20:16:53.465Z,1.70
2023-01-04T20:19:21.482Z,2.00
2023-01-04T20:21:49.425Z,2.00
2023-01-04T20:24:18.115Z,2.40
2023-01-04T20:26:48.636Z,2.10
2023-01-04T20:29:17.221Z,1.70
2023-01-04T20:31:46.042Z,1.60
2023-01-04T20:34:14.591Z,1.40
2023-01-04T20:36:42.871Z,2.30
2023-01-04T20:39:11.886Z,1.90
2023-01-04T20:41:59.879Z,1.70
2023-01-04T20:44:27.975Z,2.00
2023-01-04T20:46:56.245Z,1.90
2023-01-04T20:49:24.622Z,1.60
2023-01-04T20:51:52.914Z,1.40
2023-01-04T20:54:22.054Z,1.10
2023-01-04T20:56:50.698Z,1.40
2023-01-04T20:59:19.272Z,1.40
2023-01-04T21:01:47.778Z,1.50
2023-01-04T21:04:17.945Z,1.50
2023-01-04T21:06:46.972Z,1.50
2023-01-04T21:09:16.583Z,1.20
2023-01-04T21:11:44.856Z,1.00
2023-01-04T21:14:14.358Z,1.50
2023-01-04T21:16:43.669Z,1.40
2023-01-04T21:19:13.999Z,1.60
2023-01-04T21:21:42.961Z,1.70
2023-01-04T21:24:12.155Z,1.30
2023-01-04T21:26:40.259Z,1.30
2023-01-04T21:29:08.503Z,1.70
2023-01-04T21:31:37.131Z,1.30
2023-01-04T21:34:10.828Z,1.70
2023-01-04T21:36:41.922Z,1.60
2023-01-04T21:39:10.206Z,1.50
2023-01-04T21:41:45.908Z,1.40
2023-01-04T21:44:18.063Z,1.40
2023-01-04T21:46:46.773Z,1.50
2023-01-04T21:49:15.096Z,1.30
2023-01-04T21:51:43.778Z,1.80
2023-01-04T21:54:12.237Z,1.20
2023-01-04T21:56:40.211Z,1.20
2023-01-04T21:59:08.181Z,1.20
2023-01-04T22:01:36.484Z,1.20
2023-01-04T22:04:04.665Z,1.30
2023-01-04T22:06:34.384Z,1.30
2023-01-04T22:09:02.736Z,1.90
2023-01-04T22:11:30.886Z,1.20
2023-01-04T22:13:59.153Z,1.30
2023-01-04T22:16:27.234Z,1.20
2023-01-04T22:18:55.665Z,1.30
2023-01-04T22:21:24.731Z,1.40
2023-01-04T22:23:54.032Z,1.70
2023-01-04T22:26:22.091Z,1.60
2023-01-04T22:28:50.250Z,1.50
2023-01-04T22:31:18.466Z,1.40
2023-01-04T22:33:46.522Z,1.60
2023-01-04T22:36:22.369Z,1.50
2023-01-04T22:38:55.945Z,1.40
2023-01-04T22:41:25.790Z,1.30
2023-01-04T22:44:04.373Z,1.30
2023-01-04T22:46:34.114Z,1.20
2023-01-04T22:49:02.464Z,1.50
2023-01-04T22:51:31.247Z,1.20
2023-01-04T22:54:01.386Z,1.30
2023-01-04T22:56:29.904Z,1.40
2023-01-04T22:58:58.529Z,1.50
2023-01-04T23:01:27.914Z,1.20
2023-01-04T23:03:57.434Z,1.00
2023-01-04T23:06:26.716Z,1.40
2023-01-04T23:09:00.653Z,1.00
2023-01-04T23:11:30.147Z,1.10
2023-01-04T23:14:00.233Z,1.10
2023-01-04T23:16:32.759Z,1.00
2023-01-04T23:19:01.789Z,1.00
2023-01-04T23:21:30.942Z,1.40
2023-01-04T23:24:00.789Z,1.40
2023-01-04T23:26:29.840Z,1.10
2023-01-04T23:28:58.019Z,1.20
2023-01-04T23:31:27.192Z,1.00
2023-01-04T23:33:56.557Z,1.20
2023-01-04T23:36:25.906Z,1.60
2023-01-04T23:38:55.110Z,1.10
2023-01-04T23:41:43.558Z,1.40
2023-01-04T23:44:19.387Z,1.10
2023-01-04T23:46:51.345Z,0.80
2023-01-04T23:49:19.228Z,1.10
2023-01-04T23:51:48.017Z,0.90
2023-01-04T23:54:15.957Z,0.90
2023-01-04T23:56:44.055Z,0.80
2023-01-04T23:59:12.396Z,1.10
